createdAt,value
2019-01-14T00:01:16.666Z,52.63
2019-01-14T00:03:45.325Z,52.59
2019-01-14T00:06:13.506Z,52.65
2019-01-14T00:08:41.730Z,52.49
2019-01-14T00:11:09.882Z,52.55
2019-01-14T00:13:38.134Z,52.43
2019-01-14T00:16:06.326Z,52.48
2019-01-14T00:18:34.602Z,52.36
2019-01-14T00:21:02.772Z,52.59
2019-01-14T00:23:30.985Z,52.47
2019-01-14T00:25:59.162Z,52.33
2019-01-14T00:28:27.337Z,52.52
2019-01-14T00:30:55.537Z,52.71
2019-01-14T00:33:23.705Z,52.62
2019-01-14T00:35:52.536Z,52.65
2019-01-14T00:38:20.772Z,52.57
2019-01-14T00:40:49.004Z,52.64
2019-01-14T00:43:17.221Z,52.50
2019-01-14T00:45:45.419Z,52.50
2019-01-14T00:48:13.549Z,52.66
2019-01-14T00:50:41.692Z,52.48
2019-01-14T00:53:09.858Z,52.64
2019-01-14T00:55:38.046Z,52.56
2019-01-14T00:58:06.251Z,52.50
2019-01-14T01:00:34.617Z,52.24
2019-01-14T01:03:02.761Z,52.24
2019-01-14T01:05:30.931Z,52.34
2019-01-14T01:07:59.122Z,52.27
2019-01-14T01:10:27.254Z,52.41
2019-01-14T01:12:55.444Z,52.40
2019-01-14T01:15:23.718Z,52.24
2019-01-14T01:17:51.875Z,52.29
2019-01-14T01:20:20.804Z,52.23
2019-01-14T01:22:48.974Z,52.28
2019-01-14T01:25:17.151Z,52.33
2019-01-14T01:27:45.310Z,52.52
2019-01-14T01:30:14.632Z,52.45
2019-01-14T01:32:42.750Z,52.44
2019-01-14T01:35:11.365Z,52.52
2019-01-14T01:37:39.553Z,52.52
2019-01-14T01:40:09.383Z,52.37
2019-01-14T01:42:37.573Z,52.62
2019-01-14T01:45:06.012Z,52.28
2019-01-14T01:47:34.229Z,52.43
2019-01-14T01:50:02.461Z,52.21
2019-01-14T01:52:30.646Z,52.43
2019-01-14T01:55:01.676Z,52.41
2019-01-14T01:57:29.823Z,52.51
2019-01-14T01:59:58.003Z,52.48
2019-01-14T02:02:26.145Z,52.38
2019-01-14T02:04:54.321Z,52.51
2019-01-14T02:07:22.514Z,52.45
2019-01-14T02:09:50.724Z,52.31
2019-01-14T02:12:18.943Z,52.30
2019-01-14T02:14:47.072Z,52.32
2019-01-14T02:17:15.735Z,52.49
2019-01-14T02:19:43.915Z,52.47
2019-01-14T02:22:12.071Z,52.46
2019-01-14T02:24:40.351Z,52.21
2019-01-14T02:27:08.495Z,52.40
2019-01-14T02:29:36.684Z,52.32
2019-01-14T02:32:04.840Z,52.24
2019-01-14T02:34:33.049Z,52.29
2019-01-14T02:37:01.164Z,52.21
2019-01-14T02:39:29.387Z,52.22
2019-01-14T02:41:57.614Z,52.35
2019-01-14T02:44:25.830Z,52.18
2019-01-14T02:46:54.054Z,52.29
2019-01-14T02:49:22.248Z,52.33
2019-01-14T02:51:50.425Z,52.34
2019-01-14T02:54:18.626Z,52.19
2019-01-14T02:56:46.753Z,52.21
2019-01-14T02:59:14.999Z,52.17
2019-01-14T03:01:43.231Z,52.34
2019-01-14T03:04:11.363Z,52.18
2019-01-14T03:06:39.525Z,52.29
2019-01-14T03:09:08.095Z,52.28
2019-01-14T03:11:36.250Z,52.18
2019-01-14T03:14:04.457Z,52.26
2019-01-14T03:16:32.607Z,52.18
2019-01-14T03:19:00.830Z,52.31
2019-01-14T03:21:29.025Z,52.29
2019-01-14T03:23:57.199Z,52.20
2019-01-14T03:26:25.379Z,52.28
2019-01-14T03:28:53.535Z,52.32
2019-01-14T03:31:21.825Z,52.11
2019-01-14T03:33:49.970Z,52.30
2019-01-14T03:36:18.159Z,52.34
2019-01-14T03:38:46.334Z,52.26
2019-01-14T03:41:14.518Z,52.43
2019-01-14T03:43:42.716Z,52.31
2019-01-14T03:46:10.897Z,52.15
2019-01-14T03:48:39.053Z,52.10
2019-01-14T03:51:07.287Z,52.14
2019-01-14T03:53:35.504Z,52.45
2019-01-14T03:56:03.815Z,52.36
2019-01-14T03:58:32.148Z,52.46
2019-01-14T04:01:00.414Z,52.19
2019-01-14T04:03:28.739Z,52.30
2019-01-14T04:05:56.958Z,52.10
2019-01-14T04:08:25.197Z,52.11
2019-01-14T04:10:53.463Z,52.17
2019-01-14T04:13:21.667Z,52.29
2019-01-14T04:15:49.802Z,52.24
2019-01-14T04:18:18.042Z,52.07
2019-01-14T04:20:46.202Z,52.14
2019-01-14T04:23:14.358Z,52.00
2019-01-14T04:25:42.524Z,51.82
2019-01-14T04:28:10.781Z,51.87
2019-01-14T04:30:38.967Z,51.81
2019-01-14T04:33:07.202Z,51.65
2019-01-14T04:35:35.369Z,51.58
2019-01-14T04:38:03.571Z,51.75
2019-01-14T04:40:31.735Z,51.75
2019-01-14T04:42:59.894Z,51.70
2019-01-14T04:45:28.093Z,51.67
2019-01-14T04:47:56.222Z,51.65
2019-01-14T04:50:24.466Z,51.73
2019-01-14T04:52:52.652Z,51.70
2019-01-14T04:55:20.862Z,51.62
2019-01-14T04:57:49.115Z,51.73
2019-01-14T05:00:21.202Z,51.53
2019-01-14T05:02:49.474Z,51.58
2019-01-14T05:05:17.649Z,51.54
2019-01-14T05:07:45.840Z,51.25
2019-01-14T05:10:14.370Z,51.26
2019-01-14T05:12:42.650Z,50.99
2019-01-14T05:15:11.218Z,51.02
2019-01-14T05:17:39.409Z,51.02
2019-01-14T05:20:08.369Z,51.06
2019-01-14T05:22:36.545Z,51.02
2019-01-14T05:25:04.918Z,51.01
2019-01-14T05:27:33.055Z,51.03
2019-01-14T05:30:01.266Z,50.82
2019-01-14T05:32:29.423Z,50.77
2019-01-14T05:34:57.539Z,50.74
2019-01-14T05:37:25.703Z,50.57
2019-01-14T05:39:53.882Z,50.90
2019-01-14T05:42:22.160Z,50.84
2019-01-14T05:44:50.355Z,50.89
2019-01-14T05:47:18.478Z,50.78
2019-01-14T05:49:46.626Z,50.87
2019-01-14T05:52:14.850Z,50.87
2019-01-14T05:54:43.001Z,50.80
2019-01-14T05:57:11.205Z,50.80
2019-01-14T05:59:39.398Z,50.86
2019-01-14T06:02:07.555Z,50.92
2019-01-14T06:04:35.718Z,50.90
2019-01-14T06:07:03.878Z,50.75
2019-01-14T06:09:32.116Z,50.69
2019-01-14T06:12:00.283Z,50.77
2019-01-14T06:14:28.421Z,50.61
2019-01-14T06:16:56.597Z,50.73
2019-01-14T06:19:25.261Z,50.65
2019-01-14T06:21:53.442Z,50.48
2019-01-14T06:24:21.585Z,50.58
2019-01-14T06:26:49.867Z,50.71
2019-01-14T06:29:18.025Z,50.84
2019-01-14T06:31:46.202Z,50.79
2019-01-14T06:34:14.442Z,50.77
2019-01-14T06:36:42.593Z,50.53
2019-01-14T06:39:10.748Z,50.62
2019-01-14T06:41:38.905Z,50.50
2019-01-14T06:44:07.108Z,50.36
2019-01-14T06:46:35.281Z,50.31
2019-01-14T06:49:03.454Z,50.28
2019-01-14T06:51:31.630Z,50.35
2019-01-14T06:53:59.809Z,50.27
2019-01-14T06:56:27.953Z,50.06
2019-01-14T06:58:56.111Z,50.13
2019-01-14T07:01:24.250Z,50.14
2019-01-14T07:03:52.742Z,49.98
2019-01-14T07:06:22.343Z,50.19
2019-01-14T07:08:50.655Z,49.94
2019-01-14T07:11:19.414Z,49.93
2019-01-14T07:13:47.553Z,49.98
2019-01-14T07:16:15.711Z,49.78
2019-01-14T07:18:43.842Z,49.81
2019-01-14T07:21:12.095Z,49.45
2019-01-14T07:23:40.261Z,49.67
2019-01-14T07:26:08.438Z,49.72
2019-01-14T07:28:37.077Z,49.57
2019-01-14T07:31:05.363Z,49.46
2019-01-14T07:33:33.509Z,49.42
2019-01-14T07:36:01.782Z,49.17
2019-01-14T07:38:29.962Z,49.23
2019-01-14T07:40:58.114Z,49.51
2019-01-14T07:43:26.389Z,49.29
2019-01-14T07:45:54.576Z,49.47
2019-01-14T07:48:22.733Z,49.49
2019-01-14T07:50:50.902Z,49.38
2019-01-14T07:53:19.130Z,49.32
2019-01-14T07:55:47.370Z,49.40
2019-01-14T07:58:15.505Z,49.32
2019-01-14T08:00:43.649Z,49.28
2019-01-14T08:03:12.081Z,49.33
2019-01-14T08:05:40.281Z,49.21
2019-01-14T08:08:14.021Z,49.20
2019-01-14T08:10:38.943Z,49.07
2019-01-14T08:13:07.231Z,49.32
2019-01-14T08:15:35.417Z,49.10
2019-01-14T08:18:03.595Z,49.10
2019-01-14T08:20:31.782Z,48.89
2019-01-14T08:23:00.011Z,48.93
2019-01-14T08:25:28.208Z,48.99
2019-01-14T08:27:56.341Z,48.80
2019-01-14T08:30:24.471Z,49.09
2019-01-14T08:32:52.577Z,49.01
2019-01-14T08:35:20.740Z,48.79
2019-01-14T08:37:48.862Z,48.84
2019-01-14T08:40:17.494Z,48.71
2019-01-14T08:42:45.609Z,48.37
2019-01-14T08:45:13.818Z,48.52
2019-01-14T08:47:41.937Z,48.37
2019-01-14T08:50:14.477Z,48.58
2019-01-14T08:52:42.598Z,48.53
2019-01-14T08:55:10.723Z,48.16
2019-01-14T08:57:38.849Z,48.29
2019-01-14T09:00:08.532Z,48.49
2019-01-14T09:02:36.666Z,48.61
2019-01-14T09:05:05.190Z,48.48
2019-01-14T09:07:33.305Z,48.50
2019-01-14T09:10:01.424Z,48.36
2019-01-14T09:12:29.547Z,48.63
2019-01-14T09:14:57.667Z,48.55
2019-01-14T09:17:25.813Z,48.27
2019-01-14T09:19:54.013Z,48.67
2019-01-14T09:22:22.150Z,48.50
2019-01-14T09:24:50.261Z,48.80
2019-01-14T09:27:18.387Z,48.87
2019-01-14T09:29:46.497Z,48.80
2019-01-14T09:32:14.723Z,48.59
2019-01-14T09:34:42.838Z,48.69
2019-01-14T09:37:10.968Z,48.72
2019-01-14T09:39:39.097Z,48.59
2019-01-14T09:42:07.223Z,48.25
2019-01-14T09:44:35.335Z,48.72
2019-01-14T09:47:03.532Z,48.60
2019-01-14T09:49:31.658Z,49.01
2019-01-14T09:51:59.826Z,49.06
2019-01-14T09:54:27.956Z,48.92
2019-01-14T09:56:56.094Z,49.03
2019-01-14T09:59:24.215Z,48.71
2019-01-14T10:01:52.332Z,48.97
2019-01-14T10:04:20.463Z,49.09
2019-01-14T10:06:48.577Z,49.02
2019-01-14T10:09:16.721Z,48.74
2019-01-14T10:11:44.830Z,48.91
2019-01-14T10:14:12.971Z,48.81
2019-01-14T10:16:42.189Z,49.13
2019-01-14T10:19:10.331Z,49.03
2019-01-14T10:21:38.453Z,48.71
2019-01-14T10:24:07.644Z,48.77
2019-01-14T10:26:35.764Z,48.52
2019-01-14T10:29:03.877Z,48.17
2019-01-14T10:31:32.005Z,48.24
2019-01-14T10:34:00.119Z,48.58
2019-01-14T10:36:28.242Z,48.35
2019-01-14T10:38:56.381Z,48.43
2019-01-14T10:41:24.519Z,48.74
2019-01-14T10:43:52.638Z,48.62
2019-01-14T10:46:20.770Z,48.08
2019-01-14T10:48:48.904Z,48.67
2019-01-14T10:51:17.034Z,48.86
2019-01-14T10:53:45.179Z,48.81
2019-01-14T10:56:13.327Z,48.91
2019-01-14T10:58:41.454Z,48.73
2019-01-14T11:01:09.570Z,48.56
2019-01-14T11:03:37.688Z,48.72
2019-01-14T11:06:05.822Z,49.14
2019-01-14T11:08:33.971Z,48.97
2019-01-14T11:11:02.106Z,48.23
2019-01-14T11:13:30.243Z,49.01
2019-01-14T11:15:58.369Z,48.54
2019-01-14T11:18:26.513Z,49.03
2019-01-14T11:20:54.753Z,48.57
2019-01-14T11:23:22.880Z,48.68
2019-01-14T11:25:51.021Z,48.96
2019-01-14T11:28:19.189Z,48.92
2019-01-14T11:30:47.285Z,49.04
2019-01-14T11:33:15.410Z,49.20
2019-01-14T11:35:43.533Z,48.75
2019-01-14T11:38:29.710Z,48.50
2019-01-14T11:40:57.829Z,48.50
2019-01-14T11:43:25.960Z,48.21
2019-01-14T11:45:54.077Z,48.72
2019-01-14T11:48:22.189Z,48.98
2019-01-14T11:50:50.395Z,49.06
2019-01-14T11:53:18.512Z,49.05
2019-01-14T11:55:46.625Z,48.97
2019-01-14T11:58:14.749Z,48.95
2019-01-14T12:00:42.883Z,48.69
2019-01-14T12:03:11.025Z,48.88
2019-01-14T12:05:39.234Z,49.28
2019-01-14T12:08:07.438Z,49.15
2019-01-14T12:10:35.595Z,48.85
2019-01-14T12:13:03.883Z,52.62
2019-01-14T12:15:32.065Z,49.78
2019-01-14T12:18:00.374Z,49.24
2019-01-14T12:20:28.628Z,51.75
2019-01-14T12:22:56.794Z,48.14
2019-01-14T12:25:24.935Z,48.40
2019-01-14T12:27:53.222Z,48.47
2019-01-14T12:30:22.993Z,47.91
2019-01-14T12:32:51.177Z,48.14
2019-01-14T12:35:19.340Z,48.74
2019-01-14T12:37:47.593Z,48.64
2019-01-14T12:40:15.843Z,48.80
2019-01-14T12:42:43.994Z,48.79
2019-01-14T12:45:12.233Z,49.03
2019-01-14T12:47:40.454Z,49.10
2019-01-14T12:50:09.833Z,49.27
2019-01-14T12:52:44.028Z,49.42
2019-01-14T12:55:08.842Z,49.29
2019-01-14T12:57:37.194Z,49.34
2019-01-14T13:00:06.803Z,49.64
2019-01-14T13:02:35.160Z,49.61
2019-01-14T13:05:03.382Z,49.36
2019-01-14T13:07:31.560Z,48.98
2019-01-14T13:09:59.692Z,49.28
2019-01-14T13:12:28.009Z,49.34
2019-01-14T13:14:56.214Z,49.49
2019-01-14T13:17:24.715Z,49.46
2019-01-14T13:19:53.018Z,49.54
2019-01-14T13:22:21.435Z,49.39
2019-01-14T13:24:49.806Z,49.38
2019-01-14T13:27:18.007Z,49.39
2019-01-14T13:29:46.331Z,49.56
2019-01-14T13:32:14.640Z,49.57
2019-01-14T13:34:44.829Z,49.88
2019-01-14T13:37:15.255Z,49.70
2019-01-14T13:39:43.550Z,49.62
2019-01-14T13:42:11.845Z,49.63
2019-01-14T13:44:40.161Z,49.67
2019-01-14T13:47:08.531Z,49.51
2019-01-14T13:49:36.633Z,49.38
2019-01-14T13:52:04.881Z,49.50
2019-01-14T13:54:33.083Z,49.58
2019-01-14T13:57:01.320Z,49.43
2019-01-14T13:59:29.586Z,49.45
2019-01-14T14:01:57.826Z,49.39
2019-01-14T14:04:25.975Z,49.49
2019-01-14T14:06:54.200Z,49.58
2019-01-14T14:09:22.313Z,49.50
2019-01-14T14:11:50.533Z,49.75
2019-01-14T14:14:18.685Z,49.57
2019-01-14T14:16:46.862Z,49.69
2019-01-14T14:19:15.015Z,49.82
2019-01-14T14:21:43.177Z,49.74
2019-01-14T14:24:11.334Z,49.95
2019-01-14T14:26:39.461Z,49.77
2019-01-14T14:29:07.728Z,49.71
2019-01-14T14:31:35.856Z,49.84
2019-01-14T14:34:04.098Z,49.76
2019-01-14T14:36:32.230Z,49.80
2019-01-14T14:39:00.378Z,49.73
2019-01-14T14:41:28.577Z,49.76
2019-01-14T14:43:56.827Z,49.79
2019-01-14T14:46:25.088Z,49.61
2019-01-14T14:48:53.322Z,49.60
2019-01-14T14:51:21.517Z,49.63
2019-01-14T14:53:49.781Z,49.67
2019-01-14T14:56:18.051Z,49.58
2019-01-14T14:58:46.230Z,49.66
2019-01-14T15:01:14.541Z,49.55
2019-01-14T15:03:42.846Z,49.50
2019-01-14T15:06:11.105Z,49.67
2019-01-14T15:08:39.467Z,49.53
2019-01-14T15:11:07.707Z,49.68
2019-01-14T15:13:36.004Z,49.79
2019-01-14T15:16:04.355Z,49.31
2019-01-14T15:18:32.573Z,49.44
2019-01-14T15:21:00.847Z,49.58
2019-01-14T15:23:29.133Z,49.62
2019-01-14T15:25:57.414Z,49.65
2019-01-14T15:28:25.688Z,49.46
2019-01-14T15:30:53.961Z,49.75
2019-01-14T15:33:22.190Z,49.78
2019-01-14T15:35:50.364Z,49.76
2019-01-14T15:38:18.569Z,49.82
2019-01-14T15:40:46.814Z,49.88
2019-01-14T15:43:15.095Z,49.71
2019-01-14T15:45:43.366Z,49.83
2019-01-14T15:48:11.717Z,49.90
2019-01-14T15:50:39.931Z,49.80
2019-01-14T15:53:08.167Z,49.99
2019-01-14T15:55:36.462Z,49.77
2019-01-14T15:58:04.741Z,49.98
2019-01-14T16:00:33.017Z,49.97
2019-01-14T16:03:01.278Z,50.00
2019-01-14T16:05:29.602Z,49.83
2019-01-14T16:07:57.897Z,49.86
2019-01-14T16:10:26.366Z,49.78
2019-01-14T16:12:54.665Z,49.77
2019-01-14T16:15:22.942Z,49.78
2019-01-14T16:17:51.191Z,49.92
2019-01-14T16:20:20.373Z,49.94
2019-01-14T16:22:48.642Z,49.89
2019-01-14T16:25:16.965Z,49.79
2019-01-14T16:27:45.160Z,49.94
2019-01-14T16:30:14.799Z,49.89
2019-01-14T16:32:43.101Z,49.85
2019-01-14T16:35:11.315Z,49.78
2019-01-14T16:37:39.543Z,49.79
2019-01-14T16:40:07.822Z,49.71
2019-01-14T16:42:35.993Z,49.85
2019-01-14T16:45:04.942Z,49.92
2019-01-14T16:47:33.336Z,49.97
2019-01-14T16:50:01.734Z,50.06
2019-01-14T16:52:30.264Z,49.97
2019-01-14T16:54:58.357Z,50.02
2019-01-14T16:57:26.475Z,50.12
2019-01-14T16:59:54.626Z,49.99
2019-01-14T17:02:22.834Z,50.11
2019-01-14T17:04:50.978Z,50.05
2019-01-14T17:07:19.186Z,50.04
2019-01-14T17:09:47.292Z,49.97
2019-01-14T17:12:15.749Z,49.93
2019-01-14T17:14:43.849Z,50.02
2019-01-14T17:17:12.082Z,50.07
2019-01-14T17:19:40.252Z,50.13
2019-01-14T17:22:08.430Z,49.93
2019-01-14T17:24:36.625Z,50.09
2019-01-14T17:27:04.742Z,50.03
2019-01-14T17:29:32.865Z,50.08
2019-01-14T17:32:00.986Z,50.08
2019-01-14T17:34:29.142Z,50.04
2019-01-14T17:36:57.346Z,50.05
2019-01-14T17:39:25.459Z,49.98
2019-01-14T17:41:53.886Z,49.99
2019-01-14T17:44:22.003Z,50.03
2019-01-14T17:46:50.265Z,50.07
2019-01-14T17:49:18.421Z,50.25
2019-01-14T17:51:46.569Z,50.13
2019-01-14T17:54:14.690Z,49.96
2019-01-14T17:56:42.834Z,49.93
2019-01-14T17:59:11.010Z,49.93
2019-01-14T18:01:39.394Z,49.91
2019-01-14T18:04:07.520Z,50.04
2019-01-14T18:06:35.693Z,49.87
2019-01-14T18:09:05.681Z,49.89
2019-01-14T18:11:33.901Z,49.93
2019-01-14T18:14:02.078Z,49.85
2019-01-14T18:16:30.648Z,49.84
2019-01-14T18:18:58.863Z,50.00
2019-01-14T18:21:26.997Z,49.88
2019-01-14T18:23:55.182Z,49.85
2019-01-14T18:26:23.330Z,49.86
2019-01-14T18:28:54.069Z,49.93
2019-01-14T18:31:22.543Z,49.80
2019-01-14T18:33:50.798Z,49.97
2019-01-14T18:36:18.977Z,49.83
2019-01-14T18:38:47.158Z,49.91
2019-01-14T18:41:15.450Z,49.70
2019-01-14T18:43:43.685Z,49.60
2019-01-14T18:46:11.809Z,49.34
2019-01-14T18:48:40.073Z,49.45
2019-01-14T18:51:08.233Z,49.54
2019-01-14T18:53:36.358Z,49.29
2019-01-14T18:56:04.549Z,49.47
2019-01-14T18:58:32.685Z,49.35
2019-01-14T19:01:00.897Z,49.40
2019-01-14T19:03:29.055Z,49.23
2019-01-14T19:05:57.190Z,49.46
2019-01-14T19:08:25.314Z,49.66
2019-01-14T19:10:54.536Z,49.61
2019-01-14T19:13:22.867Z,49.66
2019-01-14T19:15:51.018Z,49.65
2019-01-14T19:18:19.133Z,49.45
2019-01-14T19:20:47.426Z,49.31
2019-01-14T19:23:15.542Z,49.25
2019-01-14T19:25:43.681Z,49.35
2019-01-14T19:28:11.820Z,49.47
2019-01-14T19:30:40.022Z,49.47
2019-01-14T19:33:08.225Z,49.52
2019-01-14T19:35:36.387Z,49.37
2019-01-14T19:38:04.518Z,49.46
2019-01-14T19:40:32.762Z,50.63
2019-01-14T19:43:00.949Z,52.41
2019-01-14T19:45:29.098Z,49.16
2019-01-14T19:47:57.277Z,49.38
2019-01-14T19:50:25.454Z,49.36
2019-01-14T19:52:54.462Z,49.41
2019-01-14T19:55:22.597Z,49.33
2019-01-14T19:57:50.816Z,49.00
2019-01-14T20:00:20.405Z,49.18
2019-01-14T20:02:48.566Z,49.44
2019-01-14T20:05:16.726Z,49.33
2019-01-14T20:07:44.886Z,49.32
2019-01-14T20:10:13.524Z,49.67
2019-01-14T20:12:41.681Z,49.57
2019-01-14T20:15:10.649Z,49.34
2019-01-14T20:17:38.818Z,49.56
2019-01-14T20:20:07.062Z,49.69
2019-01-14T20:22:35.352Z,49.59
2019-01-14T20:25:03.580Z,49.45
2019-01-14T20:27:33.207Z,49.72
2019-01-14T20:30:01.419Z,49.72
2019-01-14T20:32:29.544Z,49.82
2019-01-14T20:34:57.679Z,49.83
2019-01-14T20:37:25.842Z,49.62
2019-01-14T20:39:53.971Z,49.73
2019-01-14T20:42:22.104Z,49.81
2019-01-14T20:44:50.234Z,49.87
2019-01-14T20:47:18.352Z,49.90
2019-01-14T20:49:46.566Z,49.91
2019-01-14T20:52:14.690Z,49.73
2019-01-14T20:54:42.899Z,49.85
2019-01-14T20:57:11.301Z,50.07
2019-01-14T20:59:39.536Z,49.88
2019-01-14T21:02:07.845Z,49.95
2019-01-14T21:04:36.142Z,50.05
2019-01-14T21:07:04.673Z,49.82
2019-01-14T21:09:32.974Z,49.86
2019-01-14T21:12:01.340Z,49.74
2019-01-14T21:14:29.592Z,49.96
2019-01-14T21:16:57.951Z,49.92
2019-01-14T21:19:26.217Z,49.86
2019-01-14T21:21:54.592Z,49.79
2019-01-14T21:24:22.945Z,49.73
2019-01-14T21:26:51.354Z,49.97
2019-01-14T21:29:19.702Z,49.92
2019-01-14T21:31:47.892Z,49.98
2019-01-14T21:34:16.229Z,49.94
2019-01-14T21:36:44.482Z,49.95
2019-01-14T21:39:12.746Z,49.61
2019-01-14T21:41:41.135Z,49.46
2019-01-14T21:44:09.394Z,49.68
2019-01-14T21:46:37.670Z,49.92
2019-01-14T21:49:05.901Z,50.01
2019-01-14T21:51:34.165Z,49.97
2019-01-14T21:54:02.519Z,50.18
2019-01-14T21:56:30.841Z,50.09
2019-01-14T21:58:59.132Z,50.02
2019-01-14T22:01:27.347Z,49.81
2019-01-14T22:03:55.650Z,49.99
2019-01-14T22:06:23.924Z,50.07
2019-01-14T22:08:52.332Z,50.08
2019-01-14T22:11:20.599Z,49.78
2019-01-14T22:13:48.918Z,49.92
2019-01-14T22:16:18.016Z,49.99
2019-01-14T22:18:46.363Z,49.97
2019-01-14T22:21:14.677Z,50.19
2019-01-14T22:23:42.944Z,50.16
2019-01-14T22:26:11.237Z,50.09
2019-01-14T22:28:39.464Z,50.05
2019-01-14T22:31:07.702Z,50.08
2019-01-14T22:33:36.037Z,50.26
2019-01-14T22:36:04.317Z,50.49
2019-01-14T22:38:32.557Z,50.68
2019-01-14T22:41:00.776Z,50.52
2019-01-14T22:43:28.979Z,50.78
2019-01-14T22:45:57.171Z,50.82
2019-01-14T22:48:25.368Z,50.68
2019-01-14T22:50:53.526Z,50.73
2019-01-14T22:53:21.668Z,50.64
2019-01-14T22:55:49.850Z,50.81
2019-01-14T22:58:17.991Z,50.86
2019-01-14T23:01:01.236Z,50.66
2019-01-14T23:03:29.370Z,50.56
2019-01-14T23:05:57.503Z,50.60
2019-01-14T23:08:25.650Z,51.00
2019-01-14T23:10:53.898Z,50.95
2019-01-14T23:13:22.044Z,50.71
2019-01-14T23:15:50.226Z,50.60
2019-01-14T23:18:18.378Z,50.40
2019-01-14T23:20:46.531Z,50.70
2019-01-14T23:23:14.687Z,50.54
2019-01-14T23:25:42.844Z,50.90
2019-01-14T23:28:11.021Z,50.72
2019-01-14T23:30:39.180Z,51.08
2019-01-14T23:33:07.322Z,51.02
2019-01-14T23:35:35.449Z,50.99
2019-01-14T23:38:03.597Z,50.90
2019-01-14T23:40:31.718Z,50.97
2019-01-14T23:42:59.893Z,50.83
2019-01-14T23:45:28.009Z,50.96
2019-01-14T23:47:56.146Z,50.97
2019-01-14T23:50:24.297Z,50.96
2019-01-14T23:52:52.429Z,50.96
2019-01-14T23:55:20.594Z,51.09
2019-01-14T23:57:48.726Z,50.96
